Highlands, Texas
Current Conditions -  °F | °C
As of 8:50 AM on Monday 22 Dec 2014 (Local Time) from KEFD Reporting Station
Broken Clouds Broken Clouds  
Wind Chill: 64°   Ceiling: 800
Heat Index: 64°   Visibility: 7mi
Dew Point: 59°   Wind: 9mph
Humidity: 83%   Direction: 190°S
Pressure: 29.78"   Gusts: NA
Location:  29.82°N, 95.05°W
Report Text: KEFD 221450Z 19008KT 7SM BKN008 BKN250 18/15 A2978
Loading
Personal Weather Stations






























Interactive Weather Map New forecast layout! Learn more

10-Day Weather Forecast

Advertisements
Track Severe Weather on mobile